Weather at Camp Christina Heliport [CLOSED]

Public forecast

Using degrees Celsius for public forecast. Weather courtesy of forecast.io.

Closest aviation weather report (METAR) to Camp Christina Heliport

Closest report is Priština Adem Jashari International Airport, 3.9 nm (7.2 km) WNW.

2024/05/28 16:30 (retrieved 12 minutes ago)

BKPR 281630Z VRB02KT 9999 FEW075 19/11 Q1014 NOSIG

Closest aviation forecast (TAF) to Camp Christina Heliport

Closest forecast is Priština Adem Jashari International Airport, 3.9 nm (7.2 km) WNW.

2024/05/28 12:00 Correction (retrieved 5 hours ago)

TAF COR BKPR 281130Z 2812/2912 03008KT 9999 SCT040 SCT080 TEMPO 2812/2819 VRB15G25KT 5000 TSRA SCT030CB TEMPO 2902/2906 3000 BR